Time;durP1;ratioP1;P1;durP2;ratioP2;P2;SDS_P1;SDS_P2;PMS_P1;PMS_P2;Temp;Humidity;BMP_temperature;BMP_pressure;BME280_temperature;BME280_humidity;BME280_pressure;Samples;Min_cycle;Max_cycle;Signal;HPM_P1;HPM_P2
2021/09/14 00:00:36;;;;;;;25.35;19.45;;;16.60;74.70;;;;;;5013970;28;20100;-83
2021/09/14 00:03:03;;;;;;;26.25;22.33;;;16.60;74.80;;;;;;5013582;28;20057;-83
2021/09/14 00:05:30;;;;;;;28.75;23.75;;;16.60;74.90;;;;;;5013342;28;20042;-83
2021/09/14 00:07:57;;;;;;;27.15;22.38;;;16.60;74.90;;;;;;5013750;28;20046;-83
2021/09/14 00:10:24;;;;;;;30.90;25.20;;;16.60;74.90;;;;;;5013671;28;20049;-83
2021/09/14 00:12:51;;;;;;;27.05;21.27;;;16.50;74.90;;;;;;5013859;28;20104;-83
2021/09/14 00:15:18;;;;;;;22.17;18.85;;;16.50;74.90;;;;;;5013139;28;20061;-83
2021/09/14 00:17:45;;;;;;;25.48;19.85;;;16.50;74.90;;;;;;5012302;28;20429;-84
2021/09/14 00:20:12;;;;;;;25.80;22.83;;;16.50;75.00;;;;;;5013369;28;20049;-84
2021/09/14 00:22:39;;;;;;;29.38;23.48;;;16.40;75.00;;;;;;5013689;28;20080;-83
2021/09/14 00:25:06;;;;;;;23.55;19.88;;;16.40;75.10;;;;;;4996269;28;20100;-83
2021/09/14 00:27:33;;;;;;;26.10;21.23;;;16.50;75.10;;;;;;5012568;28;20968;-83
2021/09/14 00:30:00;;;;;;;31.77;23.75;;;16.40;75.20;;;;;;5012677;28;20478;-83
2021/09/14 00:32:27;;;;;;;25.33;20.33;;;16.40;75.30;;;;;;5013206;28;20104;-83
2021/09/14 00:34:54;;;;;;;25.05;21.73;;;16.40;75.30;;;;;;5013066;28;20045;-83
2021/09/14 00:37:21;;;;;;;23.88;20.67;;;16.40;75.40;;;;;;5013164;28;20081;-83
2021/09/14 00:39:47;;;;;;;28.58;24.30;;;16.40;75.40;;;;;;5013646;28;20395;-83
2021/09/14 00:42:14;;;;;;;28.05;23.45;;;16.40;75.40;;;;;;5012698;28;20104;-83
2021/09/14 00:44:42;;;;;;;26.55;22.38;;;16.40;75.40;;;;;;5012798;28;20061;-84
2021/09/14 00:47:08;;;;;;;31.27;25.50;;;16.30;75.50;;;;;;5013069;28;20104;-83
2021/09/14 00:49:35;;;;;;;23.85;18.80;;;16.30;75.50;;;;;;5012759;28;20050;-83
2021/09/14 00:52:02;;;;;;;27.60;22.17;;;16.30;75.60;;;;;;5013264;28;20080;-83
2021/09/14 00:54:30;;;;;;;27.10;21.50;;;16.30;75.60;;;;;;5012727;28;20058;-83
2021/09/14 00:56:57;;;;;;;25.00;20.58;;;16.30;75.60;;;;;;5012725;28;20050;-83
2021/09/14 00:59:25;;;;;;;27.33;21.60;;;16.30;75.50;;;;;;5012435;28;20155;-83
2021/09/14 01:01:54;;;;;;;26.27;21.58;;;16.20;75.50;;;;;;5012849;28;20050;-84
2021/09/14 01:04:22;;;;;;;25.85;20.75;;;16.20;75.40;;;;;;5012454;28;20057;-83
2021/09/14 01:06:49;;;;;;;26.83;22.27;;;16.20;75.40;;;;;;5013278;28;20049;-84
2021/09/14 01:09:16;;;;;;;19.77;17.33;;;16.20;75.50;;;;;;5012475;28;20054;-83
2021/09/14 01:11:44;;;;;;;26.40;23.30;;;16.20;75.50;;;;;;5012104;28;20489;-83
2021/09/14 01:14:20;;;;;;;23.77;19.25;;;16.20;75.50;;;;;;5012216;28;20414;-83
2021/09/14 01:16:47;;;;;;;31.33;24.80;;;16.20;75.50;;;;;;5012432;28;20038;-83
2021/09/14 01:19:14;;;;;;;25.40;22.00;;;16.20;75.50;;;;;;5012164;28;20569;-83
2021/09/14 01:21:41;;;;;;;34.38;27.45;;;16.10;75.60;;;;;;5010864;28;20477;-83
2021/09/14 01:24:08;;;;;;;26.15;22.00;;;16.10;75.70;;;;;;5012302;28;20543;-83
2021/09/14 01:26:35;;;;;;;33.67;26.15;;;16.20;75.90;;;;;;5011974;28;20457;-83
2021/09/14 01:29:10;;;;;;;40.65;30.45;;;16.10;75.90;;;;;;5011437;28;20411;-83
2021/09/14 01:31:38;;;;;;;32.42;27.65;;;16.10;76.10;;;;;;4997826;28;20045;-83
2021/09/14 01:34:05;;;;;;;27.90;21.73;;;16.10;76.30;;;;;;5012246;28;20049;-83
2021/09/14 01:36:32;;;;;;;25.02;21.25;;;16.10;76.50;;;;;;5012485;28;20124;-83
2021/09/14 01:38:59;;;;;;;30.50;23.48;;;16.10;76.60;;;;;;5012094;28;20053;-83
2021/09/14 01:41:26;;;;;;;46.40;35.25;;;16.10;76.70;;;;;;5011707;28;20104;-83
2021/09/14 01:43:53;;;;;;;48.90;38.70;;;16.10;76.80;;;;;;5011822;28;20046;-83
2021/09/14 01:46:19;;;;;;;52.33;38.35;;;16.10;77.00;;;;;;5012109;28;20100;-83
2021/09/14 01:48:46;;;;;;;48.63;35.80;;;16.10;77.30;;;;;;5012134;28;20056;-83
2021/09/14 01:51:14;;;;;;;41.03;32.85;;;16.10;77.50;;;;;;5011912;28;20050;-83
2021/09/14 01:53:43;;;;;;;43.88;33.88;;;16.10;77.70;;;;;;5011838;28;20046;-83
2021/09/14 01:56:10;;;;;;;37.42;31.10;;;16.00;77.70;;;;;;5011294;28;20108;-83
2021/09/14 01:58:37;;;;;;;39.08;33.10;;;16.00;77.80;;;;;;4994566;28;20100;-84
2021/09/14 02:01:13;;;;;;;45.40;34.47;;;16.10;77.80;;;;;;5012074;28;20049;-83
2021/09/14 02:44:24;;;;;;;26.60;21.75;;;15.90;76.60;;;;;;5015356;28;20046;-83
2021/09/14 03:00:38;;;;;;;27.63;22.05;;;15.80;76.50;;;;;;5014887;28;20087;-83
2021/09/14 03:03:05;;;;;;;33.78;26.00;;;15.80;76.40;;;;;;5014460;28;20096;-83
2021/09/14 03:05:32;;;;;;;29.98;23.25;;;15.70;76.40;;;;;;5014860;28;20049;-83
2021/09/14 03:07:59;;;;;;;35.85;27.08;;;15.70;76.40;;;;;;5014908;28;20469;-83
2021/09/14 03:10:25;;;;;;;31.08;26.35;;;15.70;76.30;;;;;;5014120;28;20481;-83
2021/09/14 03:12:52;;;;;;;32.55;26.52;;;15.70;76.30;;;;;;5015280;28;20054;-83
2021/09/14 03:15:19;;;;;;;29.45;24.98;;;15.70;76.40;;;;;;5014661;28;20053;-83
2021/09/14 03:17:46;;;;;;;37.08;29.33;;;15.60;76.40;;;;;;5014185;28;20049;-83
2021/09/14 03:20:13;;;;;;;39.50;31.42;;;15.60;76.50;;;;;;5014707;28;20049;-83
2021/09/14 03:22:40;;;;;;;47.60;35.97;;;15.60;76.60;;;;;;5014869;28;20097;-83
2021/09/14 03:25:07;;;;;;;41.80;33.70;;;15.60;76.80;;;;;;5014218;28;20053;-84
2021/09/14 03:27:34;;;;;;;37.90;30.02;;;15.50;76.90;;;;;;5014498;28;20050;-83
2021/09/14 03:30:02;;;;;;;51.50;35.88;;;15.50;77.10;;;;;;5014204;28;20473;-83
2021/09/14 03:32:29;;;;;;;54.35;38.83;;;15.50;77.10;;;;;;5013951;28;20049;-83
2021/09/14 03:34:56;;;;;;;43.90;33.35;;;15.50;77.10;;;;;;4997117;28;20050;-84
2021/09/14 03:37:24;;;;;;;38.83;31.80;;;15.50;77.10;;;;;;5014250;28;20100;-83
2021/09/14 03:39:51;;;;;;;47.03;36.83;;;15.40;77.10;;;;;;5014285;28;20053;-83
2021/09/14 03:42:18;;;;;;;45.47;35.05;;;15.40;77.20;;;;;;5014273;28;20046;-83
2021/09/14 03:44:45;;;;;;;43.28;32.22;;;15.40;77.30;;;;;;5014025;28;20077;-83
2021/09/14 03:47:14;;;;;;;39.17;27.80;;;15.40;77.50;;;;;;5013800;28;20037;-83
2021/09/14 03:49:41;;;;;;;30.17;26.75;;;15.40;77.60;;;;;;5014256;28;20050;-83
2021/09/14 03:52:08;;;;;;;28.45;23.48;;;15.40;77.60;;;;;;5013899;28;20107;-83
2021/09/14 03:54:35;;;;;;;29.38;23.00;;;15.40;77.50;;;;;;5014048;28;20096;-83
2021/09/14 03:57:02;;;;;;;36.00;28.80;;;15.40;77.50;;;;;;5013910;28;20053;-83
2021/09/14 03:59:29;;;;;;;33.45;25.30;;;15.40;77.50;;;;;;5013984;28;20503;-83
2021/09/14 04:01:59;;;;;;;33.72;27.35;;;15.40;77.60;;;;;;5013518;28;20082;-83
2021/09/14 04:04:44;;;;;;;33.30;25.25;;;15.40;77.60;;;;;;5013817;28;20045;-83
2021/09/14 04:07:22;;;;;;;44.80;33.67;;;15.40;77.70;;;;;;5011242;28;20062;-84
2021/09/14 04:09:51;;;;;;;46.47;33.13;;;15.40;77.70;;;;;;5012937;28;20057;-83
2021/09/14 04:12:18;;;;;;;45.75;32.58;;;15.40;77.90;;;;;;5013698;28;20053;-83
2021/09/14 04:14:45;;;;;;;39.83;28.98;;;15.40;78.00;;;;;;5013735;28;20104;-83
2021/09/14 04:17:12;;;;;;;46.17;37.67;;;15.40;78.10;;;;;;5013196;28;20042;-83
2021/09/14 04:19:39;;;;;;;56.10;40.30;;;15.40;78.20;;;;;;5013767;28;20051;-83
2021/09/14 04:22:06;;;;;;;52.80;40.03;;;15.40;78.30;;;;;;5013484;28;20049;-83
2021/09/14 04:24:33;;;;;;;55.10;40.28;;;15.40;78.40;;;;;;5012568;28;20080;-84
2021/09/14 04:27:00;;;;;;;48.08;37.10;;;15.40;78.60;;;;;;5013396;28;20461;-83
2021/09/14 04:29:27;;;;;;;55.78;41.13;;;15.40;78.70;;;;;;5013066;28;20580;-83
2021/09/14 04:31:54;;;;;;;56.90;42.95;;;15.40;78.90;;;;;;5013048;28;20042;-83
2021/09/14 04:34:20;;;;;;;53.60;38.78;;;15.40;79.10;;;;;;5013265;28;20058;-83
2021/09/14 04:36:47;;;;;;;52.53;39.53;;;15.30;79.20;;;;;;5013657;28;20466;-83
2021/09/14 04:39:16;;;;;;;53.63;41.45;;;15.40;79.40;;;;;;5012898;28;20042;-83
2021/09/14 04:41:43;;;;;;;55.15;41.22;;;15.40;79.50;;;;;;5013276;28;20053;-83
2021/09/14 04:44:10;;;;;;;67.70;48.50;;;15.40;79.50;;;;;;5013190;28;20041;-84
2021/09/14 04:46:37;;;;;;;64.65;44.10;;;15.40;79.60;;;;;;5012744;28;20050;-83
2021/09/14 04:49:05;;;;;;;57.58;43.70;;;15.40;79.60;;;;;;5013054;28;20100;-83
2021/09/14 04:51:32;;;;;;;48.72;36.45;;;15.40;79.70;;;;;;5012997;28;20104;-83
2021/09/14 04:53:59;;;;;;;48.60;36.90;;;15.40;79.70;;;;;;5012452;28;20053;-84
2021/09/14 04:56:26;;;;;;;47.22;34.97;;;15.40;79.80;;;;;;5012865;28;20049;-83
2021/09/14 04:58:52;;;;;;;46.72;36.63;;;15.40;79.80;;;;;;5012836;28;20457;-83
2021/09/14 05:01:20;;;;;;;48.90;39.63;;;15.40;79.80;;;;;;5012413;28;20058;-83
2021/09/14 05:03:48;;;;;;;45.63;34.97;;;15.40;79.70;;;;;;5012740;28;20046;-84
2021/09/14 05:06:14;;;;;;;49.20;32.45;;;15.40;79.60;;;;;;5012383;28;20057;-84
2021/09/14 05:08:41;;;;;;;45.00;32.40;;;15.40;79.40;;;;;;5012106;28;20050;-84
2021/09/14 05:11:08;;;;;;;41.53;33.75;;;15.40;79.40;;;;;;5012399;28;20485;-83
2021/09/14 05:13:36;;;;;;;49.63;36.35;;;15.40;79.20;;;;;;5012854;28;20062;-83
2021/09/14 05:16:03;;;;;;;41.92;35.30;;;15.30;79.20;;;;;;5012469;28;20507;-83
2021/09/14 05:18:30;;;;;;;45.55;33.53;;;15.30;79.10;;;;;;5012660;28;20498;-83
2021/09/14 05:20:57;;;;;;;44.45;34.38;;;15.30;79.10;;;;;;5012086;28;20049;-83
2021/09/14 05:23:33;;;;;;;57.28;38.97;;;15.30;79.00;;;;;;5012043;28;20415;-83
2021/09/14 05:26:02;;;;;;;43.70;34.65;;;15.30;79.00;;;;;;5012460;28;20096;-83
2021/09/14 05:28:30;;;;;;;43.42;35.47;;;15.30;79.10;;;;;;4996619;28;20049;-84
2021/09/14 05:31:01;;;;;;;43.22;35.22;;;15.30;79.20;;;;;;5007529;28;20054;-83
2021/09/14 05:33:28;;;;;;;52.80;38.22;;;15.30;79.20;;;;;;5012596;28;20131;-84
2021/09/14 05:35:56;;;;;;;58.55;41.35;;;15.30;79.30;;;;;;5011673;28;20510;-83
2021/09/14 05:38:25;;;;;;;54.97;42.75;;;15.30;79.50;;;;;;5011794;28;20089;-83
2021/09/14 05:40:57;;;;;;;60.13;43.83;;;15.30;79.70;;;;;;5012333;28;20049;-83
2021/09/14 05:43:26;;;;;;;58.40;40.72;;;15.30;79.80;;;;;;5012136;28;20049;-83
2021/09/14 05:45:54;;;;;;;47.17;35.40;;;15.30;79.90;;;;;;5012209;28;20053;-83
2021/09/14 05:48:21;;;;;;;51.65;39.50;;;15.30;80.00;;;;;;5011499;28;20050;-83
2021/09/14 05:50:47;;;;;;;54.05;38.85;;;15.30;80.10;;;;;;5011806;28;20095;-83
2021/09/14 05:53:14;;;;;;;46.38;35.55;;;15.30;80.20;;;;;;5011794;28;20054;-83
2021/09/14 05:55:41;;;;;;;43.78;34.58;;;15.30;80.20;;;;;;5011955;28;20100;-83
2021/09/14 05:58:08;;;;;;;50.17;38.88;;;15.30;80.20;;;;;;5011972;28;20454;-83
2021/09/14 06:00:35;;;;;;;62.78;45.45;;;15.30;80.20;;;;;;5011957;28;20108;-83
2021/09/14 06:03:03;;;;;;;49.13;37.15;;;15.40;80.30;;;;;;5011469;28;20046;-83
2021/09/14 06:05:30;;;;;;;48.65;38.58;;;15.30;80.30;;;;;;5011745;28;20418;-83
2021/09/14 06:07:57;;;;;;;50.70;36.05;;;15.40;80.30;;;;;;5011421;28;20045;-83
2021/09/14 06:10:24;;;;;;;53.67;39.33;;;15.40;80.30;;;;;;5011781;28;20123;-83
2021/09/14 06:12:51;;;;;;;63.72;42.28;;;15.40;80.40;;;;;;5010411;28;20049;-84
2021/09/14 06:15:17;;;;;;;53.55;39.58;;;15.30;80.40;;;;;;5009842;28;20054;-85
2021/09/14 06:17:44;;;;;;;56.60;38.53;;;15.40;80.50;;;;;;5012081;28;20049;-84
2021/09/14 06:20:12;;;;;;;57.58;39.38;;;15.40;80.50;;;;;;5012182;28;20050;-84
2021/09/14 06:22:39;;;;;;;53.38;37.92;;;15.40;80.60;;;;;;5011698;28;20510;-84
2021/09/14 06:25:06;;;;;;;54.90;39.55;;;15.40;80.70;;;;;;5014671;28;20049;-84
2021/09/14 06:27:33;;;;;;;55.75;39.92;;;15.40;80.70;;;;;;5008598;28;20104;-83
2021/09/14 06:30:00;;;;;;;59.45;41.63;;;15.40;80.70;;;;;;5011204;28;20054;-83
2021/09/14 06:32:27;;;;;;;57.05;42.28;;;15.40;80.80;;;;;;5011475;28;20046;-83
2021/09/14 06:34:54;;;;;;;50.67;38.17;;;15.40;80.90;;;;;;5011862;28;20046;-83
2021/09/14 06:37:20;;;;;;;57.28;41.63;;;15.50;81.00;;;;;;5012810;28;20058;-83
2021/09/14 06:39:47;;;;;;;52.45;38.90;;;15.50;81.00;;;;;;5014035;28;20853;-83
2021/09/14 06:42:14;;;;;;;51.70;38.95;;;15.50;81.00;;;;;;5011190;28;20054;-83
2021/09/14 06:44:41;;;;;;;64.13;42.95;;;15.50;81.10;;;;;;5011027;28;20116;-84
2021/09/14 06:47:08;;;;;;;55.90;40.92;;;15.60;81.20;;;;;;5011033;28;20050;-85
2021/09/14 06:49:35;;;;;;;56.45;39.00;;;15.60;81.30;;;;;;5011582;28;20046;-86
2021/09/14 06:52:02;;;;;;;54.58;38.42;;;15.60;81.40;;;;;;4997532;28;20116;-84
2021/09/14 06:54:29;;;;;;;59.42;42.28;;;15.60;81.40;;;;;;5011259;28;20084;-83
2021/09/14 06:56:56;;;;;;;50.65;37.08;;;15.60;81.40;;;;;;5011429;28;20461;-84
2021/09/14 06:59:22;;;;;;;45.13;33.85;;;15.60;81.50;;;;;;5010874;28;20050;-83
2021/09/14 07:01:49;;;;;;;46.38;35.45;;;15.60;81.50;;;;;;5010682;28;20089;-84
2021/09/14 07:04:25;;;;;;;59.40;39.53;;;15.60;81.50;;;;;;4995954;28;20693;-84
2021/09/14 07:06:52;;;;;;;51.88;37.13;;;15.70;81.60;;;;;;5014454;28;20100;-83
2021/09/14 07:09:19;;;;;;;47.22;35.92;;;15.70;81.60;;;;;;5011028;28;20057;-84
2021/09/14 07:11:46;;;;;;;52.72;36.75;;;15.80;81.70;;;;;;5010878;28;20058;-83
2021/09/14 07:14:13;;;;;;;48.90;35.72;;;15.70;81.70;;;;;;5010423;28;20042;-83
2021/09/14 07:16:40;;;;;;;44.70;29.95;;;15.80;81.80;;;;;;5010612;28;20080;-83
2021/09/14 07:19:07;;;;;;;50.13;30.05;;;15.90;81.80;;;;;;5013277;28;20395;-83
2021/09/14 07:21:34;;;;;;;40.20;29.95;;;15.90;81.80;;;;;;5011430;28;20465;-83
2021/09/14 07:24:01;;;;;;;46.70;32.28;;;15.90;81.70;;;;;;5010686;28;20104;-83
2021/09/14 07:26:28;;;;;;;49.08;37.42;;;15.90;81.60;;;;;;5010176;28;20052;-84
2021/09/14 07:28:55;;;;;;;43.47;31.58;;;15.90;81.60;;;;;;4992779;28;20580;-84
2021/09/14 07:31:22;;;;;;;36.70;29.92;;;16.00;81.50;;;;;;5012057;28;20054;-83
2021/09/14 07:33:49;;;;;;;40.63;31.10;;;15.90;81.50;;;;;;5014732;28;20572;-83
2021/09/14 07:36:16;;;;;;;38.65;31.25;;;16.00;81.50;;;;;;5010243;28;20050;-83
2021/09/14 07:38:43;;;;;;;40.15;29.38;;;16.00;81.50;;;;;;5010450;28;20041;-84
2021/09/14 07:41:10;;;;;;;41.45;29.42;;;16.00;81.60;;;;;;5010363;28;20049;-83
2021/09/14 07:43:37;;;;;;;35.58;26.88;;;16.10;81.60;;;;;;5010290;28;20101;-84
2021/09/14 07:46:04;;;;;;;33.17;25.02;;;16.10;81.60;;;;;;5013147;28;20054;-84
2021/09/14 07:48:31;;;;;;;45.15;28.90;;;16.10;81.60;;;;;;5011673;28;20104;-84
2021/09/14 07:50:57;;;;;;;35.22;27.55;;;16.10;81.60;;;;;;5009830;28;20081;-83
2021/09/14 07:53:24;;;;;;;34.50;25.90;;;16.20;81.60;;;;;;5010547;28;20045;-83
2021/09/14 07:55:51;;;;;;;34.35;23.85;;;16.20;81.70;;;;;;5010081;28;20574;-85
2021/09/14 07:58:18;;;;;;;34.63;25.20;;;16.20;81.70;;;;;;5011857;28;20137;-83
2021/09/14 08:00:45;;;;;;;32.38;24.73;;;16.30;81.70;;;;;;5012534;28;20096;-84
2021/09/14 08:03:12;;;;;;;33.40;23.83;;;16.30;81.80;;;;;;5009854;28;20046;-84
2021/09/14 08:05:39;;;;;;;29.73;23.10;;;16.30;81.80;;;;;;5009637;28;20096;-82
2021/09/14 08:08:07;;;;;;;27.38;22.33;;;16.40;81.90;;;;;;5010045;28;20046;-84
2021/09/14 08:10:35;;;;;;;26.48;20.40;;;16.40;81.90;;;;;;5011717;28;20065;-84
2021/09/14 08:13:03;;;;;;;25.67;18.23;;;16.50;82.00;;;;;;5013213;28;20086;-84
2021/09/14 08:15:30;;;;;;;21.70;16.85;;;16.60;82.10;;;;;;5010952;28;20069;-85
2021/09/14 08:17:59;;;;;;;20.40;14.13;;;16.70;82.30;;;;;;5009656;28;20201;-84
2021/09/14 08:20:26;;;;;;;15.07;12.85;;;16.80;82.50;;;;;;5009368;28;20089;-84
2021/09/14 08:22:53;;;;;;;17.60;13.10;;;16.90;82.70;;;;;;5009745;28;20042;-85
2021/09/14 08:25:20;;;;;;;14.30;10.73;;;17.00;82.70;;;;;;5011222;28;20194;-84
2021/09/14 08:27:47;;;;;;;14.15;10.45;;;17.10;82.70;;;;;;5011549;28;20592;-84
2021/09/14 08:30:14;;;;;;;15.00;10.60;;;17.20;82.60;;;;;;5008374;28;20096;-83
2021/09/14 08:32:42;;;;;;;13.57;9.90;;;17.30;82.50;;;;;;5009401;28;20053;-84
2021/09/14 08:35:09;;;;;;;20.10;12.10;;;17.40;82.50;;;;;;5009043;28;20041;-85
2021/09/14 08:37:36;;;;;;;24.63;16.40;;;17.50;82.30;;;;;;5008811;28;20284;-84
2021/09/14 08:40:04;;;;;;;17.80;12.60;;;17.60;82.20;;;;;;5012819;28;20103;-86
2021/09/14 08:42:37;;;;;;;14.68;10.68;;;17.70;82.10;;;;;;5010230;28;20048;-87
2021/09/14 08:45:06;;;;;;;15.32;9.55;;;17.80;82.00;;;;;;5009249;28;20046;-85
2021/09/14 08:47:33;;;;;;;10.55;8.60;;;17.90;81.90;;;;;;5009328;28;20461;-87
2021/09/14 08:50:00;;;;;;;12.02;8.43;;;17.90;81.80;;;;;;5010639;28;20056;-87
2021/09/14 08:52:27;;;;;;;12.23;8.18;;;18.00;81.70;;;;;;5009532;28;20046;-85
2021/09/14 08:54:53;;;;;;;14.70;7.95;;;18.10;81.50;;;;;;5012995;28;20042;-85
2021/09/14 08:57:20;;;;;;;14.18;8.30;;;18.20;81.30;;;;;;5008330;28;20581;-85
2021/09/14 08:59:47;;;;;;;9.65;7.20;;;18.30;81.10;;;;;;5008911;28;20058;-85
2021/09/14 09:02:16;;;;;;;12.25;6.53;;;18.40;81.00;;;;;;5008857;28;20103;-85
2021/09/14 09:05:01;;;;;;;10.93;7.05;;;18.40;80.60;;;;;;5008742;28;20042;-87
2021/09/14 09:07:35;;;;;;;8.13;6.32;;;18.40;80.40;;;;;;5010495;28;20058;-86
2021/09/14 09:10:14;;;;;;;11.10;6.97;;;18.50;80.20;;;;;;5008899;28;20069;-87
2021/09/14 09:12:49;;;;;;;12.07;7.38;;;18.50;80.20;;;;;;5010239;28;20049;-86
2021/09/14 09:15:30;;;;;;;10.63;6.88;;;18.50;80.20;;;;;;5008607;28;20049;-87
2021/09/14 09:18:04;;;;;;;11.07;7.32;;;18.50;80.10;;;;;;5008629;28;20081;-87
2021/09/14 09:20:33;;;;;;;13.90;6.75;;;18.60;80.10;;;;;;5008272;28;20042;-87
2021/09/14 09:23:11;;;;;;;13.00;6.38;;;18.60;80.00;;;;;;5008854;28;20050;-85
2021/09/14 09:25:39;;;;;;;13.15;7.10;;;18.60;80.00;;;;;;4994160;28;20093;-87
2021/09/14 09:28:10;;;;;;;11.20;7.10;;;18.70;79.90;;;;;;5011509;28;20065;-86
2021/09/14 09:30:41;;;;;;;11.18;6.68;;;18.70;79.90;;;;;;5011958;28;20050;-91
2021/09/14 09:33:10;;;;;;;8.40;6.55;;;18.80;79.90;;;;;;5008463;28;20050;-89
2021/09/14 09:35:52;;;;;;;12.73;6.35;;;18.80;80.00;;;;;;5008115;28;20129;-88
2021/09/14 09:38:19;;;;;;;11.15;6.57;;;18.90;79.90;;;;;;5008422;28;20042;-88
2021/09/14 09:40:46;;;;;;;12.88;6.32;;;18.90;79.90;;;;;;5008011;28;20569;-85
2021/09/14 09:43:13;;;;;;;8.55;5.45;;;19.00;79.90;;;;;;5009774;28;20041;-88
2021/09/14 09:45:47;;;;;;;12.15;6.18;;;19.00;79.80;;;;;;5009852;28;20058;-87
2021/09/14 09:48:15;;;;;;;8.73;5.93;;;19.10;79.70;;;;;;5008376;28;20057;-86
2021/09/14 09:50:43;;;;;;;13.73;6.35;;;19.20;79.60;;;;;;5007652;28;20124;-86
2021/09/14 09:53:11;;;;;;;9.18;5.55;;;19.20;79.60;;;;;;5008083;28;20041;-86
2021/09/14 09:55:39;;;;;;;7.78;5.63;;;19.30;79.50;;;;;;5008073;28;20054;-87
2021/09/14 09:58:08;;;;;;;12.57;5.55;;;19.40;79.40;;;;;;5010571;28;20058;-87
2021/09/14 10:00:39;;;;;;;6.88;5.20;;;19.40;79.30;;;;;;5009170;28;20050;-86
2021/09/14 10:03:13;;;;;;;8.07;5.03;;;19.60;79.20;;;;;;5008048;28;20112;-86
2021/09/14 10:05:42;;;;;;;11.38;5.40;;;19.60;79.10;;;;;;5007686;28;20046;-86
2021/09/14 10:08:19;;;;;;;7.15;5.07;;;19.70;79.10;;;;;;5009684;28;20046;-85
2021/09/14 10:10:55;;;;;;;11.50;5.03;;;19.80;79.00;;;;;;5007634;28;20039;-86
2021/09/14 10:13:31;;;;;;;10.40;5.75;;;19.80;78.80;;;;;;5009430;28;20054;-88
2021/09/14 10:15:59;;;;;;;6.80;4.88;;;19.90;78.70;;;;;;5008146;28;20525;-84
2021/09/14 10:18:31;;;;;;;18.38;5.57;;;19.90;78.60;;;;;;5007510;28;20054;-86
2021/09/14 10:20:58;;;;;;;7.38;4.88;;;20.00;78.50;;;;;;5007692;28;20054;-86
2021/09/14 10:23:34;;;;;;;9.63;5.45;;;20.10;78.40;;;;;;5008123;28;20050;-87
2021/09/14 10:26:08;;;;;;;8.30;6.07;;;20.10;78.50;;;;;;5007782;28;20521;-87
2021/09/14 10:28:46;;;;;;;9.25;6.75;;;20.20;78.50;;;;;;4992732;28;20057;-86
2021/09/14 10:31:24;;;;;;;11.20;7.05;;;20.20;78.50;;;;;;5018234;28;20053;-83
2021/09/14 10:34:08;;;;;;;9.82;6.20;;;20.20;78.50;;;;;;5011793;28;20054;-86
2021/09/14 10:36:40;;;;;;;11.95;7.28;;;20.30;78.40;;;;;;5011108;28;20097;-86
2021/09/14 10:39:23;;;;;;;12.90;10.50;;;20.30;78.40;;;;;;5007270;28;20100;-88
2021/09/14 10:41:53;;;;;;;11.45;7.35;;;20.30;78.40;;;;;;5007274;28;20391;-89
2021/09/14 10:44:32;;;;;;;8.60;6.32;;;20.40;78.40;;;;;;5007537;28;20585;-91
2021/09/14 10:47:06;;;;;;;10.73;6.15;;;20.40;78.60;;;;;;5009618;28;20049;-90
2021/09/14 10:49:51;;;;;;;9.35;4.90;;;20.40;78.60;;;;;;4992160;28;20121;-87
2021/09/14 10:52:31;;;;;;;7.47;5.00;;;20.40;78.60;;;;;;5009333;28;20514;-88
2021/09/14 10:55:04;;;;;;;7.00;4.95;;;20.50;78.60;;;;;;5007461;28;20046;-88
2021/09/14 10:57:39;;;;;;;8.73;5.32;;;20.50;78.70;;;;;;5008480;28;20076;-90
2021/09/14 11:00:12;;;;;;;6.85;4.50;;;20.60;78.60;;;;;;5007536;28;20050;-88
2021/09/14 11:02:39;;;;;;;9.60;4.80;;;20.80;78.60;;;;;;5010889;28;20088;-89
2021/09/14 11:05:07;;;;;;;7.15;4.70;;;20.90;78.50;;;;;;5010960;28;20089;-89
2021/09/14 11:07:35;;;;;;;8.82;5.15;;;20.90;78.40;;;;;;5010603;28;20050;-87
2021/09/14 11:10:15;;;;;;;8.95;5.20;;;20.90;78.30;;;;;;5014254;28;20046;-88
2021/09/14 11:12:46;;;;;;;8.27;4.90;;;21.00;78.10;;;;;;5011902;28;20092;-87
2021/09/14 11:15:13;;;;;;;9.57;5.93;;;21.00;77.90;;;;;;5009738;28;20074;-87
2021/09/14 11:17:40;;;;;;;9.68;4.78;;;21.10;77.80;;;;;;5009570;28;20470;-87
2021/09/14 11:20:18;;;;;;;8.13;5.10;;;21.20;77.70;;;;;;5009647;28;20115;-87
2021/09/14 11:22:46;;;;;;;10.27;5.60;;;21.10;77.60;;;;;;5009636;28;20047;-86
2021/09/14 11:25:28;;;;;;;10.07;4.65;;;21.20;77.60;;;;;;4994596;28;20507;-87
2021/09/14 11:27:56;;;;;;;12.32;5.18;;;21.20;77.70;;;;;;5013252;28;20100;-88
2021/09/14 11:30:24;;;;;;;8.43;5.53;;;21.30;77.80;;;;;;5009508;28;20458;-88
2021/09/14 11:32:52;;;;;;;7.40;4.88;;;21.30;78.00;;;;;;5009254;28;20462;-90
2021/09/14 11:35:19;;;;;;;11.32;4.72;;;21.30;78.10;;;;;;5009426;28;20564;-90
2021/09/14 11:37:57;;;;;;;9.80;5.15;;;21.30;78.00;;;;;;5009060;28;20520;-88
2021/09/14 11:40:24;;;;;;;10.02;5.20;;;21.30;77.80;;;;;;5010577;28;20092;-87
2021/09/14 11:42:58;;;;;;;9.75;4.97;;;21.30;77.70;;;;;;5012610;28;20396;-88
2021/09/14 11:45:31;;;;;;;8.95;4.20;;;21.30;77.60;;;;;;5010888;28;20185;-87
2021/09/14 11:48:00;;;;;;;7.95;4.68;;;21.40;77.50;;;;;;5009152;28;20054;-86
2021/09/14 11:50:37;;;;;;;7.97;4.60;;;21.30;77.40;;;;;;5008835;28;20049;-85
2021/09/14 11:53:17;;;;;;;6.80;4.43;;;21.30;77.30;;;;;;5009122;28;20548;-86
2021/09/14 11:55:49;;;;;;;7.30;4.32;;;21.30;77.20;;;;;;4995333;28;20502;-86
2021/09/14 11:58:31;;;;;;;10.05;4.70;;;21.40;77.10;;;;;;5011409;28;20169;-88
2021/09/14 12:01:10;;;;;;;7.88;4.78;;;21.40;76.90;;;;;;4980703;28;20050;-86
2021/09/14 12:03:44;;;;;;;7.80;4.60;;;21.40;76.80;;;;;;5012445;28;20050;-87
2021/09/14 12:06:12;;;;;;;;;;;21.40;76.70;;;;;;5010578;28;20522;-86
2021/09/14 12:08:42;;;;;;;12.45;4.70;;;21.40;76.50;;;;;;5008598;28;20452;-88
2021/09/14 12:11:10;;;;;;;6.80;4.22;;;21.50;76.30;;;;;;5008734;28;20528;-87
2021/09/14 12:13:42;;;;;;;8.65;4.53;;;21.50;76.30;;;;;;5007562;28;20058;-87
2021/09/14 12:16:24;;;;;;;6.57;4.35;;;21.50;76.20;;;;;;5011040;28;20115;-88
2021/09/14 12:18:51;;;;;;;9.77;4.32;;;21.50;76.10;;;;;;5011792;28;20065;-86
2021/09/14 12:21:17;;;;;;;7.53;4.28;;;21.60;76.00;;;;;;5008066;28;20050;-87
2021/09/14 12:23:44;;;;;;;7.35;4.15;;;21.60;75.90;;;;;;5008687;28;20046;-86
2021/09/14 12:26:23;;;;;;;6.80;4.03;;;21.60;75.90;;;;;;5008367;28;20058;-86
2021/09/14 12:28:55;;;;;;;7.28;3.95;;;21.60;75.90;;;;;;5008168;28;20522;-86
2021/09/14 12:31:23;;;;;;;8.88;4.40;;;21.70;76.00;;;;;;5009910;28;20050;-86
2021/09/14 12:33:51;;;;;;;7.75;4.13;;;21.80;76.10;;;;;;5011436;28;20112;-86
2021/09/14 12:36:18;;;;;;;6.65;3.92;;;21.80;76.10;;;;;;5007860;28;20613;-86
2021/09/14 12:38:45;;;;;;;6.63;3.53;;;21.80;76.20;;;;;;5008131;28;20054;-87
2021/09/14 12:41:16;;;;;;;12.60;3.90;;;21.90;76.20;;;;;;5008081;28;20050;-86
2021/09/14 12:43:43;;;;;;;6.90;3.30;;;21.90;76.10;;;;;;5009901;28;20038;-86
2021/09/14 12:46:10;;;;;;;7.18;3.03;;;22.00;76.10;;;;;;5010479;28;20084;-87
2021/09/14 12:48:38;;;;;;;6.25;3.10;;;22.00;76.00;;;;;;5009547;28;20050;-85
2021/09/14 12:51:05;;;;;;;5.97;3.30;;;22.10;75.90;;;;;;5007870;28;20100;-88
2021/09/14 12:53:32;;;;;;;7.43;3.00;;;22.20;75.60;;;;;;5008066;28;20107;-86
2021/09/14 12:56:00;;;;;;;7.45;3.25;;;22.30;75.20;;;;;;5007861;28;20046;-88
2021/09/14 12:58:44;;;;;;;5.78;3.10;;;22.30;74.80;;;;;;4994087;28;20058;-87
2021/09/14 13:01:11;;;;;;;7.38;3.00;;;22.40;74.50;;;;;;5010452;28;20061;-87
2021/09/14 13:03:38;;;;;;;7.90;2.90;;;22.40;74.50;;;;;;5009437;28;20049;-86
2021/09/14 13:06:05;;;;;;;6.40;2.78;;;22.40;74.40;;;;;;5007610;28;20076;-86
2021/09/14 13:08:32;;;;;;;6.05;2.70;;;22.40;74.40;;;;;;5007498;28;20100;-87
2021/09/14 13:10:59;;;;;;;7.53;2.42;;;22.40;74.40;;;;;;5007711;28;20319;-87
2021/09/14 13:16:12;;;;;;;10.55;2.85;;;22.50;74.50;;;;;;5007490;28;20046;-87
2021/09/14 13:18:43;;;;;;;5.03;2.90;;;22.50;74.70;;;;;;5008992;28;20057;-87
2021/09/14 13:21:11;;;;;;;10.13;2.78;;;22.60;74.50;;;;;;5007339;28;20108;-87
2021/09/14 13:23:40;;;;;;;6.95;3.25;;;22.70;74.20;;;;;;5008821;28;20053;-87
2021/09/14 13:26:07;;;;;;;5.72;3.40;;;22.80;73.80;;;;;;5007340;28;20100;-87
2021/09/14 13:28:34;;;;;;;6.40;3.40;;;22.80;73.70;;;;;;5007275;28;20092;-88
2021/09/14 13:31:02;;;;;;;11.13;4.25;;;22.80;73.30;;;;;;5011548;28;20615;-87
2021/09/14 13:33:29;;;;;;;6.18;3.72;;;22.70;73.10;;;;;;5009263;28;20116;-86
2021/09/14 13:35:57;;;;;;;9.60;5.10;;;22.70;73.10;;;;;;5006965;28;20099;-87
2021/09/14 13:38:27;;;;;;;6.13;4.50;;;22.60;73.40;;;;;;5006925;28;20490;-89